createdAt,value
2019-01-29T00:01:23.695Z,2.90
2019-01-29T00:03:51.377Z,3.10
2019-01-29T00:06:18.258Z,3.20
2019-01-29T00:08:44.955Z,3.20
2019-01-29T00:11:11.810Z,3.20
2019-01-29T00:13:38.637Z,3.10
2019-01-29T00:16:05.303Z,3.30
2019-01-29T00:18:31.996Z,3.00
2019-01-29T00:20:58.676Z,2.60
2019-01-29T00:23:25.316Z,2.60
2019-01-29T00:25:52.225Z,2.50
2019-01-29T00:28:18.996Z,2.50
2019-01-29T00:30:46.939Z,2.30
2019-01-29T00:33:14.139Z,2.50
2019-01-29T00:35:41.846Z,2.50
2019-01-29T00:38:11.145Z,2.40
2019-01-29T00:40:39.367Z,2.70
2019-01-29T00:43:06.196Z,2.90
2019-01-29T00:45:33.039Z,3.00
2019-01-29T00:47:59.642Z,2.70
2019-01-29T00:50:26.363Z,2.50
2019-01-29T00:52:53.313Z,2.70
2019-01-29T00:55:20.023Z,2.30
2019-01-29T00:57:46.710Z,2.20
2019-01-29T01:00:13.323Z,1.70
2019-01-29T01:02:41.226Z,1.60
2019-01-29T01:05:07.945Z,2.10
2019-01-29T01:07:34.754Z,2.30
2019-01-29T01:10:01.415Z,2.60
2019-01-29T01:12:29.080Z,2.60
2019-01-29T01:14:55.761Z,2.40
2019-01-29T01:17:22.724Z,2.50
2019-01-29T01:19:49.441Z,2.60
2019-01-29T01:22:16.109Z,2.70
2019-01-29T01:24:42.826Z,2.30
2019-01-29T01:27:09.701Z,2.40
2019-01-29T01:29:36.324Z,2.30
2019-01-29T01:32:02.986Z,2.50
2019-01-29T01:34:29.632Z,1.80
2019-01-29T01:36:57.582Z,1.50
2019-01-29T01:39:24.570Z,1.70
2019-01-29T01:41:51.201Z,2.00
2019-01-29T01:44:17.841Z,1.90
2019-01-29T01:46:44.849Z,1.90
2019-01-29T01:49:13.344Z,2.10
2019-01-29T01:51:40.079Z,2.20
2019-01-29T01:54:07.509Z,2.10
2019-01-29T01:56:37.488Z,2.00
2019-01-29T01:59:04.260Z,1.90
2019-01-29T02:01:30.919Z,1.90
2019-01-29T02:03:57.596Z,2.30
2019-01-29T02:06:24.557Z,2.50
2019-01-29T02:08:51.200Z,2.30
2019-01-29T02:11:17.989Z,1.70
2019-01-29T02:13:44.899Z,1.80
2019-01-29T02:16:11.551Z,1.70
2019-01-29T02:18:38.169Z,1.50
2019-01-29T02:21:05.350Z,1.60
2019-01-29T02:23:32.278Z,1.90
2019-01-29T02:25:58.936Z,1.90
2019-01-29T02:28:25.778Z,1.40
2019-01-29T02:30:52.709Z,1.90
2019-01-29T02:33:19.601Z,1.80
2019-01-29T02:35:46.549Z,1.80
2019-01-29T02:43:38.157Z,1.30
2019-01-29T02:46:09.703Z,1.40
2019-01-29T02:48:36.427Z,1.40
2019-01-29T02:51:03.260Z,1.50
2019-01-29T02:53:33.122Z,1.90
2019-01-29T02:56:00.834Z,1.90
2019-01-29T02:58:27.678Z,1.80
2019-01-29T03:00:54.935Z,1.60
2019-01-29T03:03:24.512Z,1.90
2019-01-29T03:05:52.882Z,2.00
2019-01-29T03:08:19.906Z,2.20
2019-01-29T03:10:46.859Z,1.90
2019-01-29T03:13:18.098Z,1.70
2019-01-29T03:15:46.403Z,2.00
2019-01-29T03:18:13.035Z,2.00
2019-01-29T03:20:42.920Z,2.00
2019-01-29T03:23:13.722Z,1.90
2019-01-29T03:25:43.169Z,1.80
2019-01-29T03:28:12.086Z,1.50
2019-01-29T03:30:41.154Z,1.70
2019-01-29T03:33:12.346Z,1.80
2019-01-29T03:35:46.917Z,1.80
2019-01-29T03:38:12.416Z,1.70
2019-01-29T03:40:39.870Z,1.40
2019-01-29T03:43:09.502Z,0.90
2019-01-29T03:45:36.322Z,1.20
2019-01-29T03:48:05.849Z,1.40
2019-01-29T03:50:33.600Z,1.70
2019-01-29T03:53:03.551Z,1.60
2019-01-29T03:55:30.489Z,1.60
2019-01-29T03:57:57.262Z,1.60
2019-01-29T04:00:25.232Z,1.70
2019-01-29T04:02:53.956Z,1.70
2019-01-29T04:05:22.124Z,1.90
2019-01-29T04:07:48.859Z,2.10
2019-01-29T04:10:19.252Z,2.20
2019-01-29T04:12:50.575Z,2.10
2019-01-29T04:15:19.679Z,2.10
2019-01-29T04:17:49.651Z,2.30
2019-01-29T04:20:20.952Z,2.20
2019-01-29T04:22:54.473Z,2.20
2019-01-29T04:25:22.584Z,2.40
2019-01-29T04:27:51.458Z,2.20
2019-01-29T04:30:21.268Z,2.10
2019-01-29T04:32:50.525Z,2.20
2019-01-29T04:35:18.362Z,2.10
2019-01-29T04:37:46.704Z,2.20
2019-01-29T04:40:13.373Z,1.80
2019-01-29T04:42:40.017Z,1.70
2019-01-29T04:45:06.704Z,1.90
2019-01-29T04:47:33.343Z,2.10
2019-01-29T04:50:00.234Z,1.70
2019-01-29T04:52:27.171Z,0.90
2019-01-29T04:54:54.037Z,0.90
2019-01-29T04:57:20.793Z,1.50
2019-01-29T04:59:47.751Z,1.50
2019-01-29T05:02:14.409Z,1.30
2019-01-29T05:04:41.421Z,1.60
2019-01-29T05:07:08.311Z,1.30
2019-01-29T05:09:35.557Z,1.20
2019-01-29T05:12:02.553Z,1.00
2019-01-29T05:14:29.145Z,1.40
2019-01-29T05:16:55.798Z,1.70
2019-01-29T05:19:22.760Z,1.50
2019-01-29T05:21:49.715Z,1.80
2019-01-29T05:24:18.136Z,1.70
2019-01-29T05:26:44.852Z,1.70
2019-01-29T05:29:11.789Z,1.50
2019-01-29T05:31:38.432Z,1.40
2019-01-29T05:34:05.324Z,1.20
2019-01-29T05:36:31.926Z,1.30
2019-01-29T05:38:58.642Z,1.10
2019-01-29T05:41:25.373Z,0.90
2019-01-29T05:43:52.266Z,1.10
2019-01-29T05:46:18.904Z,1.30
2019-01-29T05:48:45.824Z,1.00
2019-01-29T05:51:12.471Z,1.30
2019-01-29T05:53:39.126Z,1.10
2019-01-29T05:56:06.291Z,1.20
2019-01-29T05:58:33.129Z,1.30
2019-01-29T06:01:00.142Z,1.30
2019-01-29T06:03:27.153Z,1.20
2019-01-29T06:05:54.103Z,0.90
2019-01-29T06:08:21.550Z,1.10
2019-01-29T06:10:48.320Z,0.50
2019-01-29T06:13:15.081Z,0.30
2019-01-29T06:15:41.703Z,0.50
2019-01-29T06:18:08.463Z,0.80
2019-01-29T06:20:35.424Z,1.00
2019-01-29T06:23:02.198Z,1.10
2019-01-29T06:25:28.928Z,1.00
2019-01-29T06:27:55.892Z,0.80
2019-01-29T06:30:22.853Z,1.10
2019-01-29T06:32:49.466Z,1.30
2019-01-29T06:35:16.079Z,1.10
2019-01-29T06:37:43.009Z,0.50
2019-01-29T06:40:11.373Z,0.60
2019-01-29T06:42:38.145Z,0.90
2019-01-29T06:45:08.794Z,1.20
2019-01-29T06:47:37.385Z,1.30
2019-01-29T06:50:05.701Z,1.40
2019-01-29T06:52:32.783Z,1.30
2019-01-29T06:55:01.318Z,1.10
2019-01-29T06:57:32.612Z,1.10
2019-01-29T06:59:59.850Z,1.20
2019-01-29T07:02:27.753Z,1.30
2019-01-29T07:04:54.389Z,1.10
2019-01-29T07:07:23.626Z,1.20
2019-01-29T07:09:53.181Z,1.00
2019-01-29T07:12:19.861Z,1.30
2019-01-29T07:14:46.960Z,1.20
2019-01-29T07:17:13.835Z,1.40
2019-01-29T07:19:43.528Z,0.90
2019-01-29T07:22:14.708Z,1.10
2019-01-29T07:24:44.247Z,1.40
2019-01-29T07:27:13.670Z,1.00
2019-01-29T07:29:40.649Z,0.90
2019-01-29T07:32:09.823Z,1.30
2019-01-29T07:34:38.666Z,1.20
2019-01-29T07:37:09.124Z,1.40
2019-01-29T07:39:39.642Z,1.70
2019-01-29T07:42:09.316Z,2.00
2019-01-29T07:44:39.723Z,2.20
2019-01-29T07:47:09.629Z,2.30
2019-01-29T07:49:38.473Z,1.90
2019-01-29T07:52:05.536Z,1.70
2019-01-29T07:54:35.127Z,1.80
2019-01-29T07:57:02.170Z,2.00
2019-01-29T07:59:33.193Z,2.20
2019-01-29T08:01:58.230Z,2.20
2019-01-29T08:04:25.401Z,2.40
2019-01-29T08:06:52.232Z,1.80
2019-01-29T08:09:19.888Z,2.20
2019-01-29T08:11:46.630Z,2.30
2019-01-29T08:14:13.525Z,2.40
2019-01-29T08:16:41.417Z,2.70
2019-01-29T08:19:08.944Z,2.70
2019-01-29T08:21:35.652Z,2.80
2019-01-29T08:24:02.561Z,2.80
2019-01-29T08:26:29.611Z,2.80
2019-01-29T08:28:56.217Z,2.70
2019-01-29T08:31:23.085Z,2.70
2019-01-29T08:33:51.798Z,3.00
2019-01-29T08:36:20.325Z,2.90
2019-01-29T08:38:47.095Z,3.00
2019-01-29T08:41:14.048Z,2.80
2019-01-29T08:43:40.844Z,2.90
2019-01-29T08:46:07.879Z,2.70
2019-01-29T08:48:34.745Z,3.10
2019-01-29T08:51:01.497Z,3.10
2019-01-29T08:53:28.226Z,3.20
2019-01-29T08:55:55.058Z,3.80
2019-01-29T08:58:26.948Z,3.50
2019-01-29T09:00:50.549Z,3.80
2019-01-29T09:03:17.263Z,3.80
2019-01-29T09:05:44.054Z,4.10
2019-01-29T09:08:13.069Z,4.00
2019-01-29T09:10:39.592Z,3.80
2019-01-29T09:13:06.277Z,4.00
2019-01-29T09:15:33.280Z,4.50
2019-01-29T09:18:00.188Z,4.70
2019-01-29T09:20:26.854Z,5.00
2019-01-29T09:22:53.460Z,5.10
2019-01-29T09:25:22.666Z,5.20
2019-01-29T09:27:50.602Z,5.50
2019-01-29T09:30:17.339Z,5.20
2019-01-29T09:32:44.277Z,5.20
2019-01-29T09:35:10.947Z,5.50
2019-01-29T09:37:37.643Z,5.80
2019-01-29T09:40:04.341Z,5.70
2019-01-29T09:42:31.243Z,5.90
2019-01-29T09:44:57.904Z,5.90
2019-01-29T09:47:24.620Z,6.20
2019-01-29T09:49:51.456Z,6.10
2019-01-29T09:52:18.266Z,6.40
2019-01-29T09:54:45.094Z,6.50
2019-01-29T09:57:11.948Z,6.40
2019-01-29T09:59:38.590Z,6.20
2019-01-29T10:02:05.465Z,6.30
2019-01-29T10:04:32.104Z,6.40
2019-01-29T10:06:58.777Z,6.40
2019-01-29T10:09:25.858Z,6.70
2019-01-29T10:11:52.774Z,6.90
2019-01-29T10:14:21.337Z,7.20
2019-01-29T10:16:48.017Z,7.20
2019-01-29T10:19:14.961Z,7.00
2019-01-29T10:21:42.001Z,6.90
2019-01-29T10:24:08.928Z,6.70
2019-01-29T10:26:35.570Z,6.70
2019-01-29T10:29:02.368Z,6.90
2019-01-29T10:31:29.144Z,6.90
2019-01-29T10:33:56.153Z,6.80
2019-01-29T10:36:23.571Z,7.00
2019-01-29T10:38:54.144Z,7.10
2019-01-29T10:41:21.788Z,7.30
2019-01-29T10:43:51.185Z,7.30
2019-01-29T10:46:18.443Z,7.20
2019-01-29T10:48:45.218Z,7.70
2019-01-29T10:51:12.068Z,7.50
2019-01-29T10:53:40.051Z,7.50
2019-01-29T10:56:06.995Z,7.30
2019-01-29T10:58:33.635Z,7.60
2019-01-29T11:01:00.660Z,8.00
2019-01-29T11:03:27.612Z,8.10
2019-01-29T11:05:54.976Z,8.20
2019-01-29T11:08:24.287Z,8.40
2019-01-29T11:10:53.293Z,8.40
2019-01-29T11:13:22.919Z,8.70
2019-01-29T11:15:52.229Z,8.90
2019-01-29T11:18:21.132Z,8.40
2019-01-29T11:20:48.222Z,8.60
2019-01-29T11:23:17.131Z,8.80
2019-01-29T11:25:46.246Z,8.90
2019-01-29T11:28:16.443Z,8.20
2019-01-29T11:30:43.088Z,8.00
2019-01-29T11:33:10.941Z,7.90
2019-01-29T11:35:41.596Z,7.80
2019-01-29T11:38:09.256Z,7.90
2019-01-29T11:40:36.979Z,8.10
2019-01-29T11:43:04.318Z,8.50
2019-01-29T11:45:35.532Z,8.80
2019-01-29T11:48:03.341Z,9.20
2019-01-29T11:50:32.867Z,9.00
2019-01-29T11:53:02.116Z,8.90
2019-01-29T11:55:36.113Z,9.40
2019-01-29T11:58:05.977Z,9.60
2019-01-29T12:00:34.031Z,9.50
2019-01-29T12:03:01.685Z,8.90
2019-01-29T12:05:31.007Z,9.00
2019-01-29T12:07:58.732Z,9.30
2019-01-29T12:10:28.575Z,8.40
2019-01-29T12:12:58.444Z,8.60
2019-01-29T12:15:26.821Z,8.40
2019-01-29T12:17:58.895Z,8.80
2019-01-29T12:20:25.727Z,8.90
2019-01-29T12:22:55.661Z,8.60
2019-01-29T12:25:25.041Z,9.20
2019-01-29T12:27:52.762Z,9.40
2019-01-29T12:30:23.318Z,9.70
2019-01-29T12:33:07.150Z,9.30
2019-01-29T12:35:38.762Z,9.50
2019-01-29T12:38:05.397Z,9.00
2019-01-29T12:40:32.424Z,9.10
2019-01-29T12:42:59.389Z,9.10
2019-01-29T12:45:26.296Z,9.00
2019-01-29T12:47:58.970Z,9.20
2019-01-29T12:50:22.593Z,9.10
2019-01-29T12:52:50.392Z,8.60
2019-01-29T12:55:18.487Z,8.60
2019-01-29T12:57:49.276Z,8.60
2019-01-29T13:00:18.293Z,8.80
2019-01-29T13:02:46.133Z,8.50
2019-01-29T13:05:16.209Z,8.30
2019-01-29T13:07:43.986Z,8.30
2019-01-29T13:10:11.790Z,8.60
2019-01-29T13:12:41.333Z,8.40
2019-01-29T13:15:08.787Z,8.20
2019-01-29T13:17:38.729Z,8.00
2019-01-29T13:20:14.687Z,8.40
2019-01-29T13:22:38.575Z,8.50
2019-01-29T13:25:11.763Z,8.60
2019-01-29T13:27:38.987Z,8.60
2019-01-29T13:30:10.702Z,8.50
2019-01-29T13:32:41.110Z,8.40
2019-01-29T13:35:08.428Z,8.60
2019-01-29T13:37:35.334Z,8.90
2019-01-29T13:40:06.557Z,8.60
2019-01-29T13:42:33.569Z,8.70
2019-01-29T13:45:01.734Z,8.60
2019-01-29T13:47:32.150Z,8.20
2019-01-29T13:49:59.678Z,8.30
2019-01-29T13:52:28.693Z,8.40
2019-01-29T13:54:59.102Z,8.50
2019-01-29T14:00:17.474Z,8.70
2019-01-29T14:05:34.025Z,8.20
2019-01-29T14:08:02.407Z,8.30
2019-01-29T14:10:33.994Z,8.20
2019-01-29T14:13:01.461Z,8.30
2019-01-29T14:15:30.896Z,8.30
2019-01-29T14:18:01.473Z,8.40
2019-01-29T14:20:28.730Z,8.30
2019-01-29T14:22:59.019Z,8.30
2019-01-29T14:25:26.178Z,8.30
2019-01-29T14:27:53.154Z,8.30
2019-01-29T14:30:22.437Z,8.50
2019-01-29T14:32:52.489Z,8.10
2019-01-29T14:35:19.928Z,8.40
2019-01-29T14:37:46.707Z,8.30
2019-01-29T14:40:15.776Z,8.30
2019-01-29T14:42:46.349Z,7.90
2019-01-29T14:45:17.311Z,8.00
2019-01-29T14:47:45.030Z,8.00
2019-01-29T14:50:21.401Z,7.90
2019-01-29T14:52:43.966Z,8.20
2019-01-29T14:55:12.129Z,8.10
2019-01-29T14:57:48.774Z,8.10
2019-01-29T15:00:12.660Z,8.30
2019-01-29T15:02:39.275Z,8.10
2019-01-29T15:05:06.064Z,8.20
2019-01-29T15:07:33.030Z,8.10
2019-01-29T15:10:00.275Z,8.00
2019-01-29T15:12:29.552Z,8.10
2019-01-29T15:14:57.581Z,7.50
2019-01-29T15:17:26.685Z,7.40
2019-01-29T15:20:00.134Z,7.30
2019-01-29T15:22:28.409Z,7.50
2019-01-29T15:24:59.046Z,7.20
2019-01-29T15:27:28.938Z,7.30
2019-01-29T15:32:44.715Z,7.00
2019-01-29T15:35:12.414Z,6.90
2019-01-29T15:37:40.634Z,7.10
2019-01-29T15:40:09.402Z,7.30
2019-01-29T15:45:27.831Z,6.80
2019-01-29T15:48:14.073Z,7.00
2019-01-29T15:50:42.140Z,7.00
2019-01-29T15:53:10.386Z,6.80
2019-01-29T15:55:40.578Z,6.30
2019-01-29T15:58:08.225Z,6.60
2019-01-29T16:00:38.818Z,6.30
2019-01-29T16:03:09.067Z,6.30
2019-01-29T16:05:36.734Z,6.50
2019-01-29T16:08:04.444Z,6.20
2019-01-29T16:10:39.543Z,6.20
2019-01-29T16:13:01.922Z,5.70
2019-01-29T16:15:33.003Z,5.40
2019-01-29T16:18:00.450Z,5.60
2019-01-29T16:20:29.035Z,6.00
2019-01-29T16:22:59.899Z,5.70
2019-01-29T16:25:31.643Z,5.80
2019-01-29T16:27:59.543Z,5.50
2019-01-29T16:30:30.863Z,5.80
2019-01-29T16:32:58.736Z,5.70
2019-01-29T16:35:27.013Z,5.60
2019-01-29T16:37:53.716Z,5.60
2019-01-29T16:40:20.821Z,5.60
2019-01-29T16:42:47.769Z,5.90
2019-01-29T16:45:15.023Z,5.90
2019-01-29T16:47:41.893Z,5.90
2019-01-29T16:50:08.742Z,5.80
2019-01-29T16:52:35.517Z,5.60
2019-01-29T16:55:02.236Z,5.60
2019-01-29T16:57:31.787Z,5.50
2019-01-29T16:59:57.473Z,5.50
2019-01-29T17:02:24.160Z,5.60
2019-01-29T17:04:50.991Z,5.70
2019-01-29T17:07:18.010Z,5.90
2019-01-29T17:09:44.702Z,5.70
2019-01-29T17:12:11.445Z,5.60
2019-01-29T17:14:38.136Z,5.60
2019-01-29T17:17:04.772Z,5.60
2019-01-29T17:19:31.423Z,5.60
2019-01-29T17:21:58.352Z,5.60
2019-01-29T17:24:25.343Z,5.60
2019-01-29T17:26:52.284Z,5.50
2019-01-29T17:29:18.883Z,5.60
2019-01-29T17:31:45.525Z,5.40
2019-01-29T17:34:12.378Z,5.00
2019-01-29T17:36:39.447Z,4.90
2019-01-29T17:39:06.498Z,4.70
2019-01-29T17:41:33.865Z,4.80
2019-01-29T17:44:00.504Z,4.70
2019-01-29T17:46:27.916Z,4.40
2019-01-29T17:48:54.514Z,3.80
2019-01-29T17:51:21.440Z,4.10
2019-01-29T17:53:48.070Z,3.50
2019-01-29T17:56:15.017Z,4.00
2019-01-29T17:58:41.871Z,4.40
2019-01-29T18:01:08.724Z,4.50
2019-01-29T18:03:35.861Z,4.50
2019-01-29T18:06:02.948Z,4.60
2019-01-29T18:08:29.782Z,4.60
2019-01-29T18:10:58.157Z,4.70
2019-01-29T18:13:24.873Z,4.50
2019-01-29T18:15:51.843Z,4.30
2019-01-29T18:18:18.736Z,4.40
2019-01-29T18:20:45.930Z,3.60
2019-01-29T18:23:12.921Z,3.60
2019-01-29T18:25:39.563Z,3.50
2019-01-29T18:28:08.516Z,3.30
2019-01-29T18:30:34.806Z,3.60
2019-01-29T18:33:01.694Z,3.20
2019-01-29T18:35:28.640Z,3.40
2019-01-29T18:37:56.374Z,3.90
2019-01-29T18:40:23.356Z,4.20
2019-01-29T18:43:05.264Z,4.40
2019-01-29T18:48:12.485Z,4.30
2019-01-29T18:50:42.036Z,4.00
2019-01-29T18:53:09.789Z,3.90
2019-01-29T18:55:40.885Z,3.70
2019-01-29T18:58:12.096Z,3.50
2019-01-29T19:00:40.546Z,3.40
2019-01-29T19:03:07.872Z,3.50
2019-01-29T19:05:46.128Z,3.80
2019-01-29T19:08:18.062Z,3.90
2019-01-29T19:10:47.903Z,3.60
2019-01-29T19:13:17.484Z,4.10
2019-01-29T19:15:44.099Z,4.40
2019-01-29T19:18:13.746Z,4.50
2019-01-29T19:20:40.379Z,4.60
2019-01-29T19:23:13.476Z,4.60
2019-01-29T19:25:40.298Z,4.40
2019-01-29T19:28:07.998Z,4.50
2019-01-29T19:33:22.501Z,4.30
2019-01-29T19:35:50.207Z,3.70
2019-01-29T19:38:18.129Z,3.60
2019-01-29T19:40:45.838Z,3.50
2019-01-29T19:43:16.092Z,3.50
2019-01-29T19:45:46.013Z,3.20
2019-01-29T19:48:15.506Z,3.30
2019-01-29T19:50:42.625Z,3.40
2019-01-29T19:53:10.608Z,3.30
2019-01-29T19:55:38.772Z,3.70
2019-01-29T19:58:09.303Z,3.90
2019-01-29T20:00:37.538Z,3.90
2019-01-29T20:03:08.961Z,3.80
2019-01-29T20:05:37.147Z,4.20
2019-01-29T20:08:06.531Z,4.60
2019-01-29T20:10:37.587Z,4.50
2019-01-29T20:13:06.841Z,4.60
2019-01-29T20:15:35.762Z,4.30
2019-01-29T20:18:05.951Z,4.20
2019-01-29T20:20:36.918Z,4.50
2019-01-29T20:23:08.463Z,4.40
2019-01-29T20:25:36.353Z,4.50
2019-01-29T20:28:06.644Z,4.60
2019-01-29T20:30:38.998Z,4.60
2019-01-29T20:33:08.655Z,4.60
2019-01-29T20:35:37.315Z,4.20
2019-01-29T20:40:36.025Z,4.60
2019-01-29T20:45:51.527Z,4.50
2019-01-29T20:48:22.992Z,4.40
2019-01-29T20:50:54.140Z,4.30
2019-01-29T20:53:34.734Z,4.50
2019-01-29T20:56:02.206Z,4.30
2019-01-29T20:58:30.137Z,4.40
2019-01-29T21:01:00.067Z,4.20
2019-01-29T21:03:26.446Z,4.10
2019-01-29T21:05:53.455Z,4.20
2019-01-29T21:08:20.584Z,4.10
2019-01-29T21:10:47.590Z,4.20
2019-01-29T21:13:14.518Z,4.40
2019-01-29T21:15:41.451Z,4.20
2019-01-29T21:18:11.739Z,4.00
2019-01-29T21:20:39.097Z,4.10
2019-01-29T21:23:09.868Z,4.30
2019-01-29T21:25:39.000Z,4.30
2019-01-29T21:28:09.958Z,4.40
2019-01-29T21:30:38.977Z,4.50
2019-01-29T21:33:06.087Z,4.40
2019-01-29T21:35:32.998Z,4.20
2019-01-29T21:37:59.954Z,4.20
2019-01-29T21:40:34.876Z,3.90
2019-01-29T21:43:08.973Z,4.10
2019-01-29T21:48:29.280Z,4.20
2019-01-29T21:50:58.447Z,3.80
2019-01-29T21:56:12.794Z,3.90
2019-01-29T21:58:42.468Z,3.90
2019-01-29T22:01:13.639Z,3.90
2019-01-29T22:03:40.414Z,3.80
2019-01-29T22:06:07.309Z,4.00
2019-01-29T22:08:33.943Z,4.00
2019-01-29T22:11:01.959Z,4.30
2019-01-29T22:13:28.616Z,4.30
2019-01-29T22:15:55.553Z,4.40
2019-01-29T22:18:22.415Z,3.70
2019-01-29T22:20:49.018Z,3.90
2019-01-29T22:23:15.722Z,4.10
2019-01-29T22:25:42.472Z,4.20
2019-01-29T22:28:09.093Z,4.00
2019-01-29T22:30:35.855Z,4.10
2019-01-29T22:33:02.764Z,3.90
2019-01-29T22:35:29.383Z,4.10
2019-01-29T22:37:56.114Z,4.20
2019-01-29T22:40:23.041Z,4.10
2019-01-29T22:42:49.805Z,4.10
2019-01-29T22:45:16.468Z,3.80
2019-01-29T22:47:43.541Z,3.70
2019-01-29T22:50:10.394Z,3.60
2019-01-29T22:52:37.356Z,3.60
2019-01-29T22:55:04.466Z,3.60
2019-01-29T23:00:19.724Z,4.10
2019-01-29T23:02:46.448Z,3.90
2019-01-29T23:05:13.273Z,3.70
2019-01-29T23:07:40.061Z,3.90
2019-01-29T23:10:06.742Z,3.70
2019-01-29T23:12:36.947Z,3.80
2019-01-29T23:15:21.690Z,4.20
2019-01-29T23:17:53.069Z,4.10
2019-01-29T23:20:20.678Z,4.10
2019-01-29T23:22:50.349Z,4.00
2019-01-29T23:25:19.522Z,4.20
2019-01-29T23:27:47.278Z,4.30
2019-01-29T23:30:18.553Z,3.70
2019-01-29T23:32:46.634Z,3.60
2019-01-29T23:35:19.855Z,3.80
2019-01-29T23:37:47.221Z,4.10
2019-01-29T23:40:14.674Z,4.00
2019-01-29T23:42:45.603Z,3.90
2019-01-29T23:45:13.278Z,4.10
2019-01-29T23:47:46.771Z,4.30
2019-01-29T23:53:03.017Z,4.40
2019-01-29T23:55:32.938Z,4.10
2019-01-29T23:58:00.256Z,3.80
